Time,TemperatureF,DewpointF,PressureIn,WindDirection,WindDirectionDegrees,WindSpeedMPH,WindSpeedGustMPH,Humidity,HourlyPrecipIn,Conditions,Clouds,dailyrainin,SoftwareType,DateUTC
2013-05-10 00:01:00,55.2,52.6,29.97,North,-999,0.0,0.0,91,0.00,,,-99.99,WeatherLink 5.7,2013-05-10 04:01:00,
2013-05-10 00:11:00,54.8,51.9,29.97,North,-999,0.0,0.0,90,0.00,,,-99.99,WeatherLink 5.7,2013-05-10 04:11:00,
2013-05-10 00:21:00,54.1,50.9,29.97,North,-999,0.0,0.0,89,0.00,,,-99.99,WeatherLink 5.7,2013-05-10 04:21:00,
2013-05-10 00:31:00,53.9,51.0,29.97,North,-999,0.0,0.0,90,0.00,,,-99.99,WeatherLink 5.7,2013-05-10 04:31:00,
2013-05-10 00:41:00,54.5,52.2,29.97,North,-999,0.0,0.0,92,0.00,,,-99.99,WeatherLink 5.7,2013-05-10 04:41:00,
2013-05-10 00:51:00,55.1,52.8,29.97,North,-999,0.0,0.0,92,0.00,,,-99.99,WeatherLink 5.7,2013-05-10 04:51:00,
2013-05-10 01:01:00,55.4,53.1,29.97,North,-999,0.0,0.0,92,0.00,,,-99.99,WeatherLink 5.7,2013-05-10 05:01:00,
2013-05-10 01:11:00,55.4,53.1,29.97,North,-999,0.0,0.0,92,0.00,,,-99.99,WeatherLink 5.7,2013-05-10 05:11:00,
2013-05-10 01:21:00,55.3,52.7,29.97,North,-999,0.0,0.0,91,0.00,,,-99.99,WeatherLink 5.7,2013-05-10 05:21:00,
2013-05-10 01:31:00,54.9,52.3,29.97,North,-999,0.0,0.0,91,0.00,,,-99.99,WeatherLink 5.7,2013-05-10 05:31:00,
2013-05-10 01:41:00,54.7,52.4,29.97,WNW,292,0.0,1.0,92,0.00,,,-99.99,WeatherLink 5.7,2013-05-10 05:41:00,
2013-05-10 01:51:00,54.6,52.3,29.97,WNW,292,0.0,1.0,92,0.00,,,-99.99,WeatherLink 5.7,2013-05-10 05:51:00,
2013-05-10 02:01:00,54.4,51.8,29.97,North,-999,0.0,0.0,91,0.00,,,-99.99,WeatherLink 5.7,2013-05-10 06:01:00,
2013-05-10 02:11:00,54.4,52.1,29.97,North,-999,0.0,0.0,92,0.00,,,-99.99,WeatherLink 5.7,2013-05-10 06:11:00,
2013-05-10 02:21:00,54.4,52.1,29.96,WNW,292,0.0,1.0,92,0.00,,,-99.99,WeatherLink 5.7,2013-05-10 06:21:00,
2013-05-10 02:31:00,54.4,52.1,29.96,North,-999,0.0,0.0,92,0.00,,,-99.99,WeatherLink 5.7,2013-05-10 06:31:00,
2013-05-10 02:41:00,54.4,52.1,29.97,North,-999,0.0,0.0,92,0.00,,,-99.99,WeatherLink 5.7,2013-05-10 06:41:00,
2013-05-10 02:51:00,54.6,52.6,29.97,North,-999,0.0,0.0,93,0.00,,,-99.99,WeatherLink 5.7,2013-05-10 06:51:00,
2013-05-10 03:01:00,54.7,52.7,29.97,North,-999,0.0,0.0,93,0.00,,,-99.99,WeatherLink 5.7,2013-05-10 07:01:00,
2013-05-10 03:11:00,54.6,52.6,29.97,North,-999,0.0,0.0,93,0.00,,,-99.99,WeatherLink 5.7,2013-05-10 07:11:00,
2013-05-10 03:21:00,54.7,52.7,29.98,North,-999,0.0,0.0,93,0.00,,,-99.99,WeatherLink 5.7,2013-05-10 07:21:00,
2013-05-10 03:31:00,54.4,52.4,29.98,WNW,292,0.0,1.0,93,0.00,,,-99.99,WeatherLink 5.7,2013-05-10 07:31:00,
2013-05-10 03:41:00,53.8,51.5,29.98,WNW,292,0.0,1.0,92,0.00,,,-99.99,WeatherLink 5.7,2013-05-10 07:41:00,
2013-05-10 03:51:00,53.0,50.4,29.98,North,-999,0.0,0.0,91,0.00,,,-99.99,WeatherLink 5.7,2013-05-10 07:51:00,
2013-05-10 04:01:00,52.7,50.4,29.98,North,-999,0.0,1.0,92,0.00,,,-99.99,WeatherLink 5.7,2013-05-10 08:01:00,
2013-05-10 04:11:00,52.7,50.4,29.98,North,-999,0.0,1.0,92,0.00,,,-99.99,WeatherLink 5.7,2013-05-10 08:11:00,
2013-05-10 04:21:00,52.5,49.9,29.98,WNW,292,0.0,1.0,91,0.00,,,-99.99,WeatherLink 5.7,2013-05-10 08:21:00,
2013-05-10 04:31:00,52.1,49.8,29.99,WNW,292,0.0,1.0,92,0.00,,,-99.99,WeatherLink 5.7,2013-05-10 08:31:00,
2013-05-10 04:41:00,52.1,49.8,29.99,WNW,292,0.0,1.0,92,0.00,,,-99.99,WeatherLink 5.7,2013-05-10 08:41:00,
2013-05-10 04:51:00,51.7,49.2,29.98,WNW,292,0.0,1.0,91,0.00,,,-99.99,WeatherLink 5.7,2013-05-10 08:51:00,
2013-05-10 05:01:00,51.3,48.8,29.99,WNW,292,0.0,2.0,91,0.00,,,-99.99,WeatherLink 5.7,2013-05-10 09:01:00,
2013-05-10 05:11:00,51.5,49.3,29.99,WNW,292,0.0,1.0,92,0.00,,,-99.99,WeatherLink 5.7,2013-05-10 09:11:00,
2013-05-10 05:21:00,51.7,49.5,29.99,WNW,292,0.0,1.0,92,0.00,,,-99.99,WeatherLink 5.7,2013-05-10 09:21:00,
2013-05-10 05:31:00,52.1,50.1,29.99,WNW,292,0.0,1.0,93,0.00,,,-99.99,WeatherLink 5.7,2013-05-10 09:31:00,
2013-05-10 05:41:00,52.4,50.4,30.00,North,-999,0.0,0.0,93,0.00,,,-99.99,WeatherLink 5.7,2013-05-10 09:41:00,
2013-05-10 05:51:00,52.5,50.5,30.00,North,-999,0.0,0.0,93,0.00,,,-99.99,WeatherLink 5.7,2013-05-10 09:51:00,
2013-05-10 06:01:00,52.5,50.2,30.00,North,-999,0.0,1.0,92,0.00,,,-99.99,WeatherLink 5.7,2013-05-10 10:01:00,
2013-05-10 06:11:00,52.1,49.8,30.00,WNW,292,0.0,1.0,92,0.00,,,-99.99,WeatherLink 5.7,2013-05-10 10:11:00,
2013-05-10 06:21:00,51.7,49.5,30.00,North,-999,0.0,0.0,92,0.00,,,-99.99,WeatherLink 5.7,2013-05-10 10:21:00,
2013-05-10 06:31:00,51.6,49.4,30.00,North,-999,0.0,0.0,92,0.00,,,-99.99,WeatherLink 5.7,2013-05-10 10:31:00,
2013-05-10 06:41:00,51.6,49.4,30.00,North,-999,0.0,0.0,92,0.00,,,-99.99,WeatherLink 5.7,2013-05-10 10:41:00,
2013-05-10 06:51:00,52.0,50.0,30.01,North,-999,0.0,0.0,93,0.00,,,-99.99,WeatherLink 5.7,2013-05-10 10:51:00,
2013-05-10 07:01:00,52.8,50.8,30.02,WNW,292,0.0,1.0,93,0.00,,,-99.99,WeatherLink 5.7,2013-05-10 11:01:00,
2013-05-10 07:11:00,53.1,51.1,30.01,North,-999,0.0,0.0,93,0.00,,,-99.99,WeatherLink 5.7,2013-05-10 11:11:00,
2013-05-10 07:21:00,53.4,51.4,30.01,North,-999,0.0,1.0,93,0.00,,,-99.99,WeatherLink 5.7,2013-05-10 11:21:00,
2013-05-10 07:31:00,53.9,51.9,30.01,North,-999,0.0,0.0,93,0.00,,,-99.99,WeatherLink 5.7,2013-05-10 11:31:00,
2013-05-10 07:41:00,54.2,52.2,30.02,WNW,292,0.0,1.0,93,0.00,,,-99.99,WeatherLink 5.7,2013-05-10 11:41:00,
2013-05-10 07:51:00,54.5,52.5,30.02,WNW,292,0.0,1.0,93,0.00,,,-99.99,WeatherLink 5.7,2013-05-10 11:51:00,
2013-05-10 08:01:00,55.1,53.1,30.02,WNW,292,0.0,1.0,93,0.00,,,-99.99,WeatherLink 5.7,2013-05-10 12:01:00,
2013-05-10 08:11:00,56.1,54.1,30.01,WNW,292,0.0,1.0,93,0.00,,,-99.99,WeatherLink 5.7,2013-05-10 12:11:00,
2013-05-10 08:21:00,57.0,54.7,30.01,WNW,292,0.0,2.0,92,0.00,,,-99.99,WeatherLink 5.7,2013-05-10 12:21:00,
2013-05-10 08:31:00,58.0,55.4,30.01,WNW,292,0.0,1.0,91,0.00,,,-99.99,WeatherLink 5.7,2013-05-10 12:31:00,
2013-05-10 08:41:00,59.2,56.6,30.01,WNW,292,0.0,1.0,91,0.00,,,-99.99,WeatherLink 5.7,2013-05-10 12:41:00,
2013-05-10 08:51:00,60.6,57.7,30.01,WNW,292,0.0,1.0,90,0.00,,,-99.99,WeatherLink 5.7,2013-05-10 12:51:00,
2013-05-10 09:01:00,61.9,58.0,30.01,NW,315,0.0,2.0,87,0.00,,,-99.99,WeatherLink 5.7,2013-05-10 13:01:00,
2013-05-10 09:11:00,63.0,57.8,30.01,NW,315,1.0,3.0,83,0.00,,,-99.99,WeatherLink 5.7,2013-05-10 13:11:00,
2013-05-10 09:21:00,64.0,57.0,30.01,NW,315,1.0,4.0,78,0.00,,,-99.99,WeatherLink 5.7,2013-05-10 13:21:00,
2013-05-10 09:31:00,65.1,57.7,30.01,NNW,337,1.0,3.0,77,0.00,,,-99.99,WeatherLink 5.7,2013-05-10 13:31:00,
2013-05-10 09:41:00,66.1,57.6,30.01,NNW,337,1.0,4.0,74,0.00,,,-99.99,WeatherLink 5.7,2013-05-10 13:41:00,
2013-05-10 09:51:00,66.9,57.6,30.01,NNW,337,0.0,2.0,72,0.00,,,-99.99,WeatherLink 5.7,2013-05-10 13:51:00,
2013-05-10 10:01:00,67.5,58.2,30.01,NNW,337,0.0,1.0,72,0.00,,,-99.99,WeatherLink 5.7,2013-05-10 14:01:00,
2013-05-10 10:11:00,68.0,57.4,30.01,NW,315,0.0,2.0,69,0.00,,,-99.99,WeatherLink 5.7,2013-05-10 14:11:00,
2013-05-10 10:21:00,68.9,57.1,30.01,NNW,337,1.0,3.0,66,0.00,,,-99.99,WeatherLink 5.7,2013-05-10 14:21:00,
2013-05-10 10:31:00,69.6,57.3,30.01,WNW,292,1.0,4.0,65,0.00,,,-99.99,WeatherLink 5.7,2013-05-10 14:31:00,
2013-05-10 10:41:00,70.6,56.5,30.01,North,0,0.0,2.0,61,0.00,,,-99.99,WeatherLink 5.7,2013-05-10 14:41:00,
2013-05-10 10:51:00,71.6,57.9,30.01,East,90,0.0,3.0,62,0.00,,,-99.99,WeatherLink 5.7,2013-05-10 14:51:00,
2013-05-10 11:01:00,72.5,57.4,30.01,North,0,1.0,5.0,59,0.00,,,-99.99,WeatherLink 5.7,2013-05-10 15:01:00,
2013-05-10 11:11:00,72.8,58.1,30.01,NE,45,0.0,2.0,60,0.00,,,-99.99,WeatherLink 5.7,2013-05-10 15:11:00,
2013-05-10 11:21:00,72.9,57.3,30.01,NNE,22,1.0,3.0,58,0.00,,,-99.99,WeatherLink 5.7,2013-05-10 15:21:00,
2013-05-10 11:31:00,72.9,57.7,30.00,ENE,67,0.0,3.0,59,0.00,,,-99.99,WeatherLink 5.7,2013-05-10 15:31:00,
2013-05-10 11:41:00,73.6,57.4,30.00,NE,45,1.0,4.0,57,0.00,,,-99.99,WeatherLink 5.7,2013-05-10 15:41:00,
2013-05-10 11:51:00,74.0,55.3,30.00,North,0,1.0,4.0,52,0.00,,,-99.99,WeatherLink 5.7,2013-05-10 15:51:00,
2013-05-10 12:01:00,74.3,57.1,29.99,NW,315,1.0,4.0,55,0.00,,,-99.99,WeatherLink 5.7,2013-05-10 16:01:00,
2013-05-10 12:11:00,74.5,56.8,30.00,NE,45,1.0,3.0,54,0.00,,,-99.99,WeatherLink 5.7,2013-05-10 16:11:00,
2013-05-10 12:21:00,74.9,57.1,30.00,NNE,22,1.0,3.0,54,0.00,,,-99.99,WeatherLink 5.7,2013-05-10 16:21:00,
2013-05-10 12:31:00,75.8,56.4,30.00,NNE,22,1.0,4.0,51,0.00,,,-99.99,WeatherLink 5.7,2013-05-10 16:31:00,
2013-05-10 12:41:00,76.1,58.2,30.00,NE,45,1.0,3.0,54,0.00,,,-99.99,WeatherLink 5.7,2013-05-10 16:41:00,
2013-05-10 12:51:00,75.7,56.3,30.00,North,0,1.0,4.0,51,0.00,,,-99.99,WeatherLink 5.7,2013-05-10 16:51:00,
2013-05-10 13:01:00,76.2,56.7,29.99,North,0,0.0,2.0,51,0.00,,,-99.99,WeatherLink 5.7,2013-05-10 17:01:00,
2013-05-10 13:11:00,76.2,57.8,29.99,ESE,112,1.0,2.0,53,0.00,,,-99.99,WeatherLink 5.7,2013-05-10 17:11:00,
2013-05-10 13:21:00,76.0,57.1,29.99,ESE,112,1.0,3.0,52,0.00,,,-99.99,WeatherLink 5.7,2013-05-10 17:21:00,
2013-05-10 13:31:00,76.3,56.8,29.99,North,0,0.0,3.0,51,0.00,,,-99.99,WeatherLink 5.7,2013-05-10 17:31:00,
2013-05-10 13:41:00,76.6,57.7,29.99,North,0,1.0,3.0,52,0.00,,,-99.99,WeatherLink 5.7,2013-05-10 17:41:00,
2013-05-10 13:51:00,77.1,56.5,29.99,East,90,1.0,4.0,49,0.00,,,-99.99,WeatherLink 5.7,2013-05-10 17:51:00,
2013-05-10 14:01:00,77.0,57.5,29.98,ENE,67,1.0,4.0,51,0.00,,,-99.99,WeatherLink 5.7,2013-05-10 18:01:00,
2013-05-10 14:11:00,77.5,57.4,29.97,ENE,67,0.0,3.0,50,0.00,,,-99.99,WeatherLink 5.7,2013-05-10 18:11:00,
2013-05-10 14:21:00,77.9,58.9,29.98,North,0,1.0,4.0,52,0.00,,,-99.99,WeatherLink 5.7,2013-05-10 18:21:00,
2013-05-10 14:31:00,77.9,57.8,29.98,East,90,1.0,3.0,50,0.00,,,-99.99,WeatherLink 5.7,2013-05-10 18:31:00,
2013-05-10 14:41:00,78.3,57.0,29.98,ENE,67,1.0,3.0,48,0.00,,,-99.99,WeatherLink 5.7,2013-05-10 18:41:00,
2013-05-10 14:51:00,78.2,58.0,29.98,East,90,1.0,3.0,50,0.00,,,-99.99,WeatherLink 5.7,2013-05-10 18:51:00,
2013-05-10 15:01:00,78.2,57.5,29.97,ENE,67,0.0,2.0,49,0.00,,,-99.99,WeatherLink 5.7,2013-05-10 19:01:00,
2013-05-10 15:11:00,78.1,57.4,29.97,ENE,67,0.0,2.0,49,0.00,,,-99.99,WeatherLink 5.7,2013-05-10 19:11:00,
2013-05-10 15:21:00,78.4,55.3,29.97,NNE,22,0.0,3.0,45,0.00,,,-99.99,WeatherLink 5.7,2013-05-10 19:21:00,
2013-05-10 15:31:00,78.7,55.6,29.96,North,0,0.0,2.0,45,0.00,,,-99.99,WeatherLink 5.7,2013-05-10 19:31:00,
2013-05-10 15:41:00,79.2,56.6,29.96,ENE,67,1.0,2.0,46,0.00,,,-99.99,WeatherLink 5.7,2013-05-10 19:41:00,
2013-05-10 15:51:00,78.8,56.9,29.97,East,90,0.0,2.0,47,0.00,,,-99.99,WeatherLink 5.7,2013-05-10 19:51:00,
2013-05-10 16:01:00,78.9,55.1,29.96,NE,45,1.0,2.0,44,0.00,,,-99.99,WeatherLink 5.7,2013-05-10 20:01:00,
2013-05-10 16:11:00,78.6,55.5,29.96,North,0,1.0,3.0,45,0.00,,,-99.99,WeatherLink 5.7,2013-05-10 20:11:00,
2013-05-10 16:21:00,78.4,55.9,29.95,North,0,0.0,3.0,46,0.00,,,-99.99,WeatherLink 5.7,2013-05-10 20:21:00,
2013-05-10 16:31:00,78.1,55.0,29.95,North,-999,0.0,1.0,45,0.00,,,-99.99,WeatherLink 5.7,2013-05-10 20:31:00,
2013-05-10 16:41:00,77.8,56.0,29.95,North,0,0.0,1.0,47,0.00,,,-99.99,WeatherLink 5.7,2013-05-10 20:41:00,
2013-05-10 16:51:00,77.6,56.4,29.95,NNE,22,0.0,3.0,48,0.00,,,-99.99,WeatherLink 5.7,2013-05-10 20:51:00,
2013-05-10 17:01:00,77.5,56.8,29.95,NNE,22,0.0,2.0,49,0.00,,,-99.99,WeatherLink 5.7,2013-05-10 21:01:00,
2013-05-10 17:11:00,77.2,56.6,29.95,NE,45,1.0,3.0,49,0.00,,,-99.99,WeatherLink 5.7,2013-05-10 21:11:00,
2013-05-10 17:21:00,76.8,56.8,29.95,SSE,157,0.0,1.0,50,0.00,,,-99.99,WeatherLink 5.7,2013-05-10 21:21:00,
2013-05-10 17:31:00,76.6,58.2,29.96,SE,135,0.0,1.0,53,0.00,,,-99.99,WeatherLink 5.7,2013-05-10 21:31:00,
2013-05-10 17:41:00,75.8,58.0,29.95,SE,135,0.0,2.0,54,0.00,,,-99.99,WeatherLink 5.7,2013-05-10 21:41:00,
2013-05-10 17:51:00,75.1,57.8,29.95,North,-999,0.0,0.0,55,0.00,,,-99.99,WeatherLink 5.7,2013-05-10 21:51:00,
2013-05-10 18:01:00,74.4,58.7,29.94,North,-999,0.0,1.0,58,0.00,,,-99.99,WeatherLink 5.7,2013-05-10 22:01:00,
2013-05-10 18:11:00,73.8,57.6,29.94,North,-999,0.0,0.0,57,0.00,,,-99.99,WeatherLink 5.7,2013-05-10 22:11:00,
2013-05-10 18:21:00,73.4,57.2,29.93,North,-999,0.0,0.0,57,0.00,,,-99.99,WeatherLink 5.7,2013-05-10 22:21:00,
2013-05-10 18:31:00,73.2,58.0,29.93,North,-999,0.0,0.0,59,0.00,,,-99.99,WeatherLink 5.7,2013-05-10 22:31:00,
2013-05-10 18:41:00,72.9,57.3,29.93,North,-999,0.0,0.0,58,0.00,,,-99.99,WeatherLink 5.7,2013-05-10 22:41:00,
2013-05-10 18:51:00,72.7,57.1,29.94,North,-999,0.0,0.0,58,0.00,,,-99.99,WeatherLink 5.7,2013-05-10 22:51:00,
2013-05-10 19:01:00,72.4,56.8,29.93,North,-999,0.0,0.0,58,0.00,,,-99.99,WeatherLink 5.7,2013-05-10 23:01:00,
2013-05-10 19:11:00,72.1,58.4,29.93,North,-999,0.0,0.0,62,0.00,,,-99.99,WeatherLink 5.7,2013-05-10 23:11:00,
2013-05-10 19:21:00,71.6,60.1,29.93,North,-999,0.0,0.0,67,0.00,,,-99.99,WeatherLink 5.7,2013-05-10 23:21:00,
2013-05-10 19:31:00,71.0,58.6,29.93,North,-999,0.0,0.0,65,0.00,,,-99.99,WeatherLink 5.7,2013-05-10 23:31:00,
2013-05-10 19:41:00,70.3,59.6,29.93,North,-999,0.0,0.0,69,0.00,,,-99.99,WeatherLink 5.7,2013-05-10 23:41:00,
2013-05-10 19:51:00,69.8,59.2,29.93,North,-999,0.0,0.0,69,0.00,,,-99.99,WeatherLink 5.7,2013-05-10 23:51:00,
2013-05-10 20:01:00,69.4,58.0,29.93,North,-999,0.0,0.0,67,0.00,,,-99.99,WeatherLink 5.7,2013-05-11 00:01:00,
2013-05-10 20:11:00,68.7,59.3,29.93,ESE,112,0.0,1.0,72,0.00,,,-99.99,WeatherLink 5.7,2013-05-11 00:11:00,
2013-05-10 20:21:00,67.9,58.1,29.93,North,-999,0.0,0.0,71,0.00,,,-99.99,WeatherLink 5.7,2013-05-11 00:21:00,
2013-05-10 20:31:00,67.4,58.4,29.93,North,-999,0.0,0.0,73,0.00,,,-99.99,WeatherLink 5.7,2013-05-11 00:31:00,
2013-05-10 20:41:00,67.1,58.2,29.94,North,-999,0.0,1.0,73,0.00,,,-99.99,WeatherLink 5.7,2013-05-11 00:41:00,
2013-05-10 20:51:00,66.7,58.1,29.93,North,-999,0.0,1.0,74,0.00,,,-99.99,WeatherLink 5.7,2013-05-11 00:51:00,
2013-05-10 21:01:00,66.5,58.0,29.93,ESE,112,0.0,1.0,74,0.00,,,-99.99,WeatherLink 5.7,2013-05-11 01:01:00,
2013-05-10 21:11:00,66.3,58.1,29.93,North,-999,0.0,0.0,75,0.00,,,-99.99,WeatherLink 5.7,2013-05-11 01:11:00,
2013-05-10 21:21:00,66.1,57.9,29.94,North,-999,0.0,0.0,75,0.00,,,-99.99,WeatherLink 5.7,2013-05-11 01:21:00,
2013-05-10 21:31:00,66.0,58.2,29.94,North,-999,0.0,0.0,76,0.00,,,-99.99,WeatherLink 5.7,2013-05-11 01:31:00,
2013-05-10 21:41:00,65.8,57.7,29.95,North,-999,0.0,0.0,75,0.00,,,-99.99,WeatherLink 5.7,2013-05-11 01:41:00,
2013-05-10 21:51:00,65.7,57.9,29.95,North,-999,0.0,0.0,76,0.00,,,-99.99,WeatherLink 5.7,2013-05-11 01:51:00,
2013-05-10 22:01:00,65.3,58.3,29.94,North,-999,0.0,0.0,78,0.00,,,-99.99,WeatherLink 5.7,2013-05-11 02:01:00,
2013-05-10 22:11:00,64.9,57.9,29.94,North,-999,0.0,0.0,78,0.00,,,-99.99,WeatherLink 5.7,2013-05-11 02:11:00,
2013-05-10 22:21:00,64.4,57.7,29.93,North,-999,0.0,0.0,79,0.00,,,-99.99,WeatherLink 5.7,2013-05-11 02:21:00,
2013-05-10 22:31:00,64.2,57.5,29.93,North,-999,0.0,0.0,79,0.00,,,-99.99,WeatherLink 5.7,2013-05-11 02:31:00,
2013-05-10 22:41:00,64.3,57.3,29.94,ESE,112,0.0,1.0,78,0.00,,,-99.99,WeatherLink 5.7,2013-05-11 02:41:00,
2013-05-10 22:51:00,64.5,57.5,29.95,North,-999,0.0,1.0,78,0.00,,,-99.99,WeatherLink 5.7,2013-05-11 02:51:00,
2013-05-10 23:01:00,64.6,57.9,29.94,South,180,0.0,2.0,79,0.00,,,-99.99,WeatherLink 5.7,2013-05-11 03:01:00,
2013-05-10 23:11:00,64.6,57.6,29.95,South,180,0.0,2.0,78,0.00,,,-99.99,WeatherLink 5.7,2013-05-11 03:11:00,
2013-05-10 23:21:00,64.9,57.5,29.94,NE,45,0.0,3.0,77,0.00,,,-99.99,WeatherLink 5.7,2013-05-11 03:21:00,
2013-05-10 23:31:00,65.3,57.9,29.94,NNE,22,0.0,2.0,77,0.00,,,-99.99,WeatherLink 5.7,2013-05-11 03:31:00,
2013-05-10 23:41:00,65.3,59.3,29.94,NNE,22,0.0,3.0,81,0.01,,,-99.99,WeatherLink 5.7,2013-05-11 03:41:00,
2013-05-10 23:51:00,64.7,59.8,29.94,North,0,0.0,1.0,84,0.02,,,-99.99,WeatherLink 5.7,2013-05-11 03:51:00,